Buriti Bravo, Brazil
Current Conditions -  °F | °C
As of 7:00 PM on Thursday 27 Nov 2014 (Local Time) from SBTE Reporting Station
Few Clouds Few Clouds  
Wind Chill: 34°   Ceiling: Unl
Heat Index: 34°   Visibility: 6mi
Dew Point: 16°   Wind: 0mph
Humidity: 34%   Direction: NA
Pressure: 29.74"   Gusts: NA
Location:  5.84°S, 43.83°W
Report Text: SBTE 272200Z 00000KT 9999 FEW030 34/16 Q1007
Loading
Personal Weather Stations






























Interactive Weather Map New forecast layout! Learn more

10-Day Weather Forecast

Advertisements
Track Severe Weather on mobile